Terminal Aerodrome Forecast
Issued by NWS

Home | Current Version | Previous Version | Text Only | Print | Product List | Glossary On
Versions: 1 2 3 4 5 6 7 8 9 10 11 12 13 14 15 16 17 18 19 20
000
FTUS46 KSEW 261744
TAFOLM
TAF
KOLM 261744Z 2618/2718 02005KT P6SM BKN250
     FM270000 VRB04KT P6SM SCT040 BKN120
     FM270400 18006KT P6SM BKN040 BKN120
     FM270800 20007KT P6SM VCSH BKN020 OVC040
     FM271000 20005KT 2SM BR VCSH OVC008=

USA.gov is the U.S. government's official web portal to all federal, state and local government web resources and services.